Aeroporto :
LOGIN :

Iscrizione | Disclaimer

   EN    FR    IT 

 










Sommario :    VFR   VFR Marginale   IFR   IFR Intensivo   IFR Molto Intensivo
Visibilità : 
Base nubi : 
>= 8 km
>= 3000ft
5 / 8 km
1000 / 3000 ft
1500m / 5 km
500 / 1000 ft
800 / 1500m
200 / 500 ft
< 800m
< 200 ft
Simboli :   Temporali  Nebbia  Neve Forte  Precipitazioni Forti  Vento > 20 kt
SIGMETs :   Varie  Temporali  Ghiacco  Turbolenza  Onda orograficha  Ceneri Vulcaniche






- Altitudine del aeroporto : 359 ft
- Codice IATA : BVA


LFOB - Beauvais

ULTIMO METAR :
  • 271400Z AUTO 32029G41KT 9999 OVC018 06/02 Q0998 NOSIG

METARs OBSOLETI :
  • 271330Z AUTO 32030G40KT 9999 OVC017 06/02 Q0997 BECMG 33020G35KT
  • 271300Z AUTO 32032G45KT 9999 OVC018 06/03 Q0995 BECMG 33020G35KT
  • 271230Z AUTO 32032G46KT 9999 FEW009 BKN014 BKN024 06/04 Q0993 BECMG 33020G35KT BKN025
  • 271200Z AUTO 26021G32KT 9999 OVC011 10/09 Q0989 TEMPO RA BECMG 33020G35KT BKN025
  • 271130Z AUTO 25012KT 9999 OVC007 09/09 Q0988
  • 271100Z AUTO 23009KT 190V250 9999 BKN006 OVC010 08/08 Q0988 BECMG 3000 RA

TAF TAF LFOB
Valido dal 27 a 12 ore il 28 a 12 ore UTC


271100Z 2712/2812 27020G35KT 9999 RA BKN007
PROB40
TEMPO 2712/2713 33030G45KT
FM271300 33020G35KT 9999 BKN013
BECMG 2713/2715 BKN025
BECMG 2716/2718 30015G25KT
BECMG 2718/2721 27005KT
BECMG 2809/2812 18017G27KT
ATIS : +33 3 44 11 49 28



MetMap, La meteo Aeronautica in un colpo d'occhio ! - Copyright ORBIFLY Dicembre 2007 - Disclaimer

ORBIFLY MET'MAP TEAM :

Programmazione e sviluppo : Alexandra Zaïnal
Concezione : Baudouin d'Aumeries
Aiuto per la programmazione : Marc-Olivier Méhu
Supporto tecnico e logistico : Manuel Goepfert
Aiuto per la traduzione : Arnaldo La Scala

Contatto : metmap@orbifly.com




FONTI E CREDITI :

   NOAA